Time;durP1;ratioP1;P1;durP2;ratioP2;P2;SDS_P1;SDS_P2;PMS_P1;PMS_P2;Temp;Humidity;BMP_temperature;BMP_pressure;BME280_temperature;BME280_humidity;BME280_pressure;Samples;Min_cycle;Max_cycle;Signal;HPM_P1;HPM_P2
2022/01/18 00:00:30;;;;;;;26.97;5.80;;;8.40;99.90;;;;;;5036528;28;20859;-69
2022/01/18 00:02:58;;;;;;;26.20;4.97;;;8.40;99.90;;;;;;5036746;28;20450;-69
2022/01/18 00:05:26;;;;;;;18.97;5.20;;;8.40;99.90;;;;;;5036289;28;20467;-68
2022/01/18 00:07:53;;;;;;;19.93;4.90;;;8.40;99.90;;;;;;5036552;28;20477;-69
2022/01/18 00:10:22;;;;;;;14.80;4.90;;;8.40;99.90;;;;;;5036588;28;20447;-69
2022/01/18 00:13:08;;;;;;;23.73;5.00;;;8.40;99.90;;;;;;5036440;28;20450;-69
2022/01/18 00:15:42;;;;;;;15.27;6.10;;;8.40;99.90;;;;;;5036385;28;20829;-69
2022/01/18 00:18:11;;;;;;;17.90;6.47;;;8.40;99.90;;;;;;5036398;28;20430;-69
2022/01/18 00:20:56;;;;;;;21.03;4.63;;;8.50;99.90;;;;;;5036317;28;20462;-69
2022/01/18 00:23:23;;;;;;;27.00;6.37;;;8.50;99.90;;;;;;5036359;28;20434;-71
2022/01/18 00:25:54;;;;;;;19.57;5.47;;;8.40;99.90;;;;;;5036249;28;20524;-70
2022/01/18 00:28:21;;;;;;;19.80;5.70;;;8.40;99.90;;;;;;5036186;28;20516;-71
2022/01/18 00:31:33;;;;;;;27.57;5.60;;;8.40;99.90;;;;;;5036147;28;20545;-71
2022/01/18 00:34:06;;;;;;;20.63;6.97;;;8.40;99.90;;;;;;5036240;28;20474;-70
2022/01/18 00:36:39;;;;;;;24.23;6.47;;;8.40;99.90;;;;;;5036367;28;20470;-71
2022/01/18 00:39:08;;;;;;;25.60;6.40;;;8.30;99.90;;;;;;5036658;28;20434;-71
2022/01/18 00:41:35;;;;;;;28.00;8.07;;;8.40;99.90;;;;;;5035994;28;20446;-71
2022/01/18 00:44:03;;;;;;;24.10;6.50;;;8.40;99.90;;;;;;5035944;28;20474;-70
2022/01/18 00:46:32;;;;;;;20.10;6.27;;;8.30;99.90;;;;;;5035927;28;20469;-70
2022/01/18 00:49:01;;;;;;;17.67;6.67;;;8.30;99.90;;;;;;5035825;28;20540;-70
2022/01/18 00:51:28;;;;;;;25.53;8.47;;;8.30;99.90;;;;;;5035856;28;20450;-71
2022/01/18 00:53:57;;;;;;;29.90;8.10;;;8.30;99.90;;;;;;5034553;28;20482;-70
2022/01/18 00:56:27;;;;;;;27.70;7.67;;;8.30;99.90;;;;;;5035521;28;20474;-71
2022/01/18 00:58:54;;;;;;;26.70;7.20;;;8.30;99.90;;;;;;5035710;28;20505;-71
2022/01/18 01:01:23;;;;;;;28.57;8.30;;;8.30;99.90;;;;;;5035385;28;20788;-71
2022/01/18 01:03:55;;;;;;;26.30;7.87;;;8.30;99.90;;;;;;5035504;28;20470;-70
2022/01/18 01:06:22;;;;;;;16.00;6.47;;;8.30;99.90;;;;;;5035553;28;20439;-71
2022/01/18 01:08:50;;;;;;;33.33;9.63;;;8.30;99.90;;;;;;5035173;28;21032;-71
2022/01/18 01:11:17;;;;;;;21.77;7.27;;;8.30;99.90;;;;;;5035110;28;20796;-71
2022/01/18 01:13:48;;;;;;;21.37;6.90;;;8.30;99.90;;;;;;5035320;28;20453;-70
2022/01/18 01:16:40;;;;;;;27.47;7.07;;;8.40;99.90;;;;;;5035468;28;20446;-71
2022/01/18 01:35:49;;;;;;;28.70;8.30;;;8.40;99.90;;;;;;5034812;28;20493;-70
2022/01/18 01:44:03;;;;;;;24.50;7.03;;;8.30;99.90;;;;;;5035112;28;20404;-71
2022/01/18 01:46:30;;;;;;;19.63;7.23;;;8.30;99.90;;;;;;5034835;28;20434;-71
2022/01/18 01:48:59;;;;;;;26.97;7.87;;;8.30;99.90;;;;;;5034644;28;20489;-71
2022/01/18 01:51:30;;;;;;;31.37;7.10;;;8.30;99.90;;;;;;5034697;28;20537;-71
2022/01/18 01:53:58;;;;;;;23.57;8.07;;;8.30;99.90;;;;;;5034441;28;20482;-71
2022/01/18 01:56:25;;;;;;;30.70;8.10;;;8.40;99.90;;;;;;5034295;28;20919;-71
2022/01/18 01:58:52;;;;;;;23.07;7.80;;;8.40;99.90;;;;;;5034248;28;20450;-71
2022/01/18 02:01:19;;;;;;;26.40;8.80;;;8.40;99.90;;;;;;5034490;28;20453;-71
2022/01/18 02:03:46;;;;;;;30.47;8.50;;;8.40;99.90;;;;;;5033951;28;20805;-70
2022/01/18 02:06:13;;;;;;;24.97;7.67;;;8.30;99.90;;;;;;5034414;28;20478;-71
2022/01/18 02:08:42;;;;;;;25.93;8.20;;;8.30;99.90;;;;;;5034436;28;20474;-71
2022/01/18 02:11:09;;;;;;;28.20;8.80;;;8.20;99.90;;;;;;5034428;28;20450;-71
2022/01/18 02:13:36;;;;;;;34.30;7.27;;;8.20;99.90;;;;;;5034187;28;20450;-70
2022/01/18 02:21:45;;;;;;;32.83;8.23;;;8.20;99.90;;;;;;5033940;28;20454;-70
2022/01/18 02:21:52;;;;;;;20.57;8.60;;;8.10;99.90;;;;;;5034090;28;20456;-71
2022/01/18 02:24:20;;;;;;;34.17;9.67;;;8.10;99.90;;;;;;5033716;28;20981;-71
2022/01/18 02:26:46;;;;;;;31.57;9.53;;;8.10;99.90;;;;;;5034025;28;20473;-71
2022/01/18 02:29:15;;;;;;;31.50;8.20;;;8.00;99.90;;;;;;5033901;28;20561;-71
2022/01/18 02:31:42;;;;;;;25.00;8.37;;;8.10;99.90;;;;;;5033955;28;20451;-71
2022/01/18 02:34:11;;;;;;;25.37;9.00;;;8.10;99.90;;;;;;5034754;28;20478;-71
2022/01/18 02:36:38;;;;;;;30.00;8.87;;;8.00;99.90;;;;;;5033893;28;20465;-71
2022/01/18 02:39:07;;;;;;;27.30;10.43;;;8.10;99.90;;;;;;5033862;28;20447;-71
2022/01/18 02:41:35;;;;;;;28.40;9.13;;;8.10;99.90;;;;;;5033519;28;20862;-71
2022/01/18 02:44:05;;;;;;;27.60;9.63;;;8.10;99.90;;;;;;5034378;28;20513;-70
2022/01/18 02:46:32;;;;;;;29.30;10.40;;;8.10;99.90;;;;;;5033839;28;20451;-71
2022/01/18 02:49:00;;;;;;;25.47;8.40;;;8.20;99.90;;;;;;5033618;28;20485;-71
2022/01/18 02:51:27;;;;;;;30.43;8.80;;;8.20;99.90;;;;;;5033681;28;20442;-71
2022/01/18 02:54:01;;;;;;;27.43;9.40;;;8.30;99.90;;;;;;5033470;28;20498;-70
2022/01/18 02:56:32;;;;;;;16.80;7.63;;;8.30;99.90;;;;;;5033317;28;20873;-71
2022/01/18 02:59:13;;;;;;;29.30;7.90;;;8.30;99.90;;;;;;5033641;28;20431;-71
2022/01/18 03:04:24;;;;;;;38.27;8.80;;;8.40;99.90;;;;;;5033454;28;20549;-70
2022/01/18 03:06:51;;;;;;;21.47;7.60;;;8.30;99.90;;;;;;5033529;28;20450;-71
2022/01/18 03:09:18;;;;;;;26.43;8.57;;;8.30;99.90;;;;;;5033366;28;20489;-71
2022/01/18 03:11:46;;;;;;;34.57;8.80;;;8.30;99.90;;;;;;5033442;28;20451;-71
2022/01/18 03:14:13;;;;;;;19.03;7.27;;;8.30;99.90;;;;;;5033334;28;20478;-70
2022/01/18 03:16:39;;;;;;;26.17;8.37;;;8.30;99.90;;;;;;5032866;28;20458;-70
2022/01/18 03:19:06;;;;;;;25.10;7.77;;;8.30;99.90;;;;;;5033088;28;20434;-71
2022/01/18 03:21:33;;;;;;;29.57;7.50;;;8.30;99.90;;;;;;5033475;28;20430;-70
2022/01/18 03:24:12;;;;;;;21.50;7.73;;;8.30;99.90;;;;;;5033447;28;20478;-70
2022/01/18 03:29:22;;;;;;;30.50;8.97;;;8.30;99.90;;;;;;5031804;28;20478;-71
2022/01/18 03:31:49;;;;;;;21.30;7.63;;;8.30;99.90;;;;;;5033199;28;20454;-71
2022/01/18 03:34:16;;;;;;;27.40;7.40;;;8.30;99.90;;;;;;5033103;28;20474;-70
2022/01/18 03:36:42;;;;;;;24.10;7.37;;;8.30;99.90;;;;;;5033125;28;20449;-71
2022/01/18 03:39:10;;;;;;;27.33;9.10;;;8.30;99.90;;;;;;5033109;28;20442;-71
2022/01/18 03:41:36;;;;;;;24.70;6.97;;;8.30;99.90;;;;;;5033071;28;20446;-71
2022/01/18 03:44:03;;;;;;;22.80;7.60;;;8.40;99.90;;;;;;5033009;28;20473;-70
2022/01/18 03:46:36;;;;;;;18.60;7.47;;;8.40;99.90;;;;;;5033017;28;20464;-71
2022/01/18 03:49:04;;;;;;;17.57;5.97;;;8.40;99.90;;;;;;5033002;28;20467;-71
2022/01/18 03:51:31;;;;;;;18.10;6.70;;;8.50;99.90;;;;;;5033076;28;20441;-71
2022/01/18 03:53:58;;;;;;;22.20;7.00;;;8.50;99.90;;;;;;5032707;28;20482;-70
2022/01/18 03:56:24;;;;;;;20.97;6.90;;;8.50;99.90;;;;;;5033046;28;20435;-71
2022/01/18 03:58:51;;;;;;;24.50;6.97;;;8.50;99.90;;;;;;5032827;28;20854;-71
2022/01/18 04:01:18;;;;;;;21.40;8.00;;;8.50;99.90;;;;;;5032650;28;20992;-71
2022/01/18 04:03:47;;;;;;;27.60;7.27;;;8.50;99.90;;;;;;5032965;28;20450;-70
2022/01/18 04:06:13;;;;;;;16.73;6.43;;;8.50;99.90;;;;;;5032905;28;20541;-71
2022/01/18 04:08:40;;;;;;;20.90;7.20;;;8.50;99.90;;;;;;5032770;28;20454;-71
2022/01/18 04:11:07;;;;;;;20.00;7.30;;;8.60;99.90;;;;;;5032523;28;20817;-71
2022/01/18 04:13:34;;;;;;;22.90;7.97;;;8.60;99.90;;;;;;5032718;28;20442;-70
2022/01/18 04:16:00;;;;;;;25.53;7.80;;;8.60;99.90;;;;;;5032770;28;20442;-71
2022/01/18 04:18:32;;;;;;;26.30;7.83;;;8.60;99.90;;;;;;5032771;28;20445;-71
2022/01/18 04:29:13;;;;;;;33.03;8.47;;;8.50;99.90;;;;;;5035218;28;20493;-71
2022/01/18 04:31:40;;;;;;;24.63;7.23;;;8.50;99.90;;;;;;5035931;28;20461;-71
2022/01/18 04:34:07;;;;;;;24.97;8.70;;;8.50;99.90;;;;;;5036094;28;20482;-71
2022/01/18 04:36:36;;;;;;;23.30;7.77;;;8.40;99.90;;;;;;5036150;28;20454;-71
2022/01/18 04:39:03;;;;;;;20.03;8.30;;;8.40;99.90;;;;;;5036163;28;20447;-71
2022/01/18 04:41:31;;;;;;;24.73;9.40;;;8.40;99.90;;;;;;5036155;28;20446;-71
2022/01/18 04:49:35;;;;;;;20.37;9.80;;;8.10;99.90;;;;;;5035688;28;20457;-71
2022/01/18 04:52:03;;;;;;;22.27;9.50;;;8.00;99.90;;;;;;5035580;28;20937;-71
2022/01/18 04:54:30;;;;;;;34.23;10.20;;;8.00;99.90;;;;;;5035477;28;20486;-70
2022/01/18 04:59:41;;;;;;;21.57;8.53;;;8.00;99.90;;;;;;5035523;28;20481;-70
2022/01/18 05:02:08;;;;;;;20.87;8.50;;;8.00;99.90;;;;;;5035600;28;20845;-71
2022/01/18 05:04:35;;;;;;;18.10;8.67;;;8.00;99.90;;;;;;5035535;28;20475;-70
2022/01/18 05:07:03;;;;;;;17.93;8.43;;;8.10;99.90;;;;;;5035515;28;20453;-71
2022/01/18 05:09:30;;;;;;;25.67;8.20;;;8.10;99.90;;;;;;5035523;28;20482;-71
2022/01/18 05:12:04;;;;;;;22.60;8.27;;;8.10;99.90;;;;;;5035477;28;20447;-71
2022/01/18 05:14:33;;;;;;;20.80;8.67;;;8.20;99.90;;;;;;5035414;28;20474;-70
2022/01/18 05:17:13;;;;;;;26.53;8.17;;;8.20;99.90;;;;;;5035371;28;20505;-70
2022/01/18 05:19:45;;;;;;;19.80;9.50;;;8.30;99.90;;;;;;5035684;28;20426;-70
2022/01/18 05:25:00;;;;;;;28.83;8.70;;;8.20;99.90;;;;;;5035428;28;20449;-70
2022/01/18 05:27:27;;;;;;;16.73;7.97;;;8.20;99.90;;;;;;5035216;28;20482;-71
2022/01/18 05:29:54;;;;;;;23.80;8.10;;;8.20;99.90;;;;;;5035130;28;20486;-71
2022/01/18 05:32:20;;;;;;;23.80;9.27;;;8.20;99.90;;;;;;5035089;28;20443;-71
2022/01/18 05:34:48;;;;;;;16.93;8.20;;;8.20;99.90;;;;;;5036031;28;20470;-70
2022/01/18 05:37:17;;;;;;;29.07;10.60;;;8.30;99.90;;;;;;5035033;28;20438;-71
2022/01/18 05:39:44;;;;;;;26.43;9.00;;;8.30;99.90;;;;;;5034504;28;20438;-71
2022/01/18 05:42:11;;;;;;;15.67;6.93;;;8.30;99.90;;;;;;5034571;28;20442;-71
2022/01/18 05:44:38;;;;;;;18.90;8.77;;;8.30;99.90;;;;;;5034933;28;20467;-70
2022/01/18 05:47:05;;;;;;;21.50;7.10;;;8.30;99.90;;;;;;5034997;28;20501;-70
2022/01/18 05:49:32;;;;;;;14.67;7.37;;;8.30;99.90;;;;;;5034711;28;20486;-70
2022/01/18 05:51:58;;;;;;;22.77;9.27;;;8.30;99.90;;;;;;5034793;28;20434;-71
2022/01/18 05:54:26;;;;;;;17.70;8.70;;;8.30;99.90;;;;;;5034143;28;20487;-70
2022/01/18 05:56:53;;;;;;;27.30;10.10;;;8.30;99.90;;;;;;5034276;28;20950;-70
2022/01/18 05:59:23;;;;;;;31.17;10.93;;;8.30;99.90;;;;;;5034588;28;20442;-70
2022/01/18 06:02:01;;;;;;;27.70;9.70;;;8.30;99.90;;;;;;5034284;28;20442;-71
2022/01/18 06:07:12;;;;;;;29.00;11.53;;;8.20;99.90;;;;;;5034316;28;20909;-70
2022/01/18 06:09:40;;;;;;;27.10;11.07;;;8.10;99.90;;;;;;5034322;28;20489;-71
2022/01/18 06:12:08;;;;;;;25.23;11.20;;;8.00;99.90;;;;;;5034406;28;20520;-71
2022/01/18 06:14:35;;;;;;;30.90;11.13;;;8.00;99.90;;;;;;5034232;28;20471;-70
2022/01/18 06:17:01;;;;;;;23.43;11.47;;;8.00;99.90;;;;;;5034046;28;20799;-70
2022/01/18 06:19:28;;;;;;;31.60;11.23;;;8.00;99.90;;;;;;5033984;28;20450;-70
2022/01/18 06:21:55;;;;;;;26.80;10.93;;;8.00;99.90;;;;;;5034222;28;20446;-70
2022/01/18 06:24:21;;;;;;;30.57;11.77;;;8.00;99.90;;;;;;5034056;28;20470;-70
2022/01/18 06:26:50;;;;;;;33.97;12.10;;;8.00;99.90;;;;;;5034160;28;20454;-71
2022/01/18 06:29:17;;;;;;;31.70;12.87;;;8.00;99.90;;;;;;5033753;28;20909;-70
2022/01/18 06:31:44;;;;;;;22.63;11.00;;;8.00;99.90;;;;;;5034071;28;20446;-71
2022/01/18 06:34:11;;;;;;;24.80;11.70;;;8.00;99.90;;;;;;5033963;28;20524;-70
2022/01/18 06:36:38;;;;;;;41.60;13.03;;;8.00;99.90;;;;;;5033893;28;20453;-70
2022/01/18 06:39:05;;;;;;;27.53;11.20;;;8.00;99.90;;;;;;5033832;28;20458;-70
2022/01/18 06:41:32;;;;;;;32.60;11.10;;;8.00;99.90;;;;;;5033874;28;20526;-70
2022/01/18 06:44:00;;;;;;;21.27;11.20;;;8.00;99.90;;;;;;5033738;28;20465;-70
2022/01/18 06:46:27;;;;;;;26.60;10.97;;;8.00;99.90;;;;;;5033705;28;20451;-71
2022/01/18 06:48:53;;;;;;;26.30;11.00;;;8.00;99.90;;;;;;5033968;28;20476;-70
2022/01/18 06:51:20;;;;;;;22.60;11.90;;;8.00;99.90;;;;;;5033765;28;20609;-70
2022/01/18 06:53:48;;;;;;;39.90;13.13;;;8.00;99.90;;;;;;5033148;28;20954;-70
2022/01/18 06:56:17;;;;;;;25.63;12.40;;;8.00;99.90;;;;;;5033776;28;20538;-70
2022/01/18 06:58:44;;;;;;;35.77;10.87;;;8.00;99.90;;;;;;5033442;28;20526;-70
2022/01/18 07:01:14;;;;;;;35.10;11.97;;;8.00;99.90;;;;;;5033817;28;20449;-70
2022/01/18 07:03:41;;;;;;;25.57;11.23;;;8.00;99.90;;;;;;5033450;28;20477;-70
2022/01/18 07:06:08;;;;;;;29.70;10.97;;;8.00;99.90;;;;;;5033476;28;20477;-70
2022/01/18 07:08:35;;;;;;;31.67;12.20;;;8.00;99.90;;;;;;5033491;28;20450;-70
2022/01/18 07:11:02;;;;;;;31.73;11.87;;;8.00;99.90;;;;;;5033719;28;20466;-70
2022/01/18 07:13:29;;;;;;;25.17;10.87;;;8.00;99.90;;;;;;5033739;28;20450;-71
2022/01/18 07:15:56;;;;;;;26.83;11.90;;;8.00;99.90;;;;;;5033414;28;20438;-70
2022/01/18 07:18:24;;;;;;;24.47;11.33;;;8.00;99.90;;;;;;5033533;28;20457;-70
2022/01/18 07:20:51;;;;;;;30.53;11.73;;;8.00;99.90;;;;;;5033286;28;20446;-70
2022/01/18 07:23:18;;;;;;;26.83;10.20;;;8.00;99.90;;;;;;5033291;28;20442;-70
2022/01/18 07:25:47;;;;;;;33.37;11.53;;;8.00;99.90;;;;;;5033165;28;20466;-71
2022/01/18 07:28:16;;;;;;;24.73;12.00;;;8.00;99.90;;;;;;5033600;28;20454;-70
2022/01/18 07:30:43;;;;;;;33.00;11.90;;;8.00;99.90;;;;;;5033151;28;20490;-71
2022/01/18 07:33:12;;;;;;;20.73;10.47;;;8.00;99.90;;;;;;5033190;28;20454;-70
2022/01/18 07:35:41;;;;;;;27.43;10.57;;;8.10;99.90;;;;;;5033096;28;20481;-70
2022/01/18 07:38:12;;;;;;;18.20;10.40;;;8.10;99.90;;;;;;5033202;28;20454;-70
2022/01/18 07:40:40;;;;;;;30.57;11.73;;;8.10;99.90;;;;;;5033336;28;20435;-70
2022/01/18 07:43:07;;;;;;;29.30;11.63;;;8.10;99.90;;;;;;5033140;28;20447;-70
2022/01/18 07:45:34;;;;;;;21.83;10.50;;;8.00;99.90;;;;;;5032667;28;20982;-70
2022/01/18 07:48:01;;;;;;;21.47;10.30;;;8.10;99.90;;;;;;5033112;28;20453;-70
2022/01/18 07:50:28;;;;;;;21.60;9.03;;;8.00;99.90;;;;;;5032690;28;20470;-70
2022/01/18 07:52:56;;;;;;;20.13;10.07;;;8.00;99.90;;;;;;5033058;28;20446;-70
2022/01/18 07:55:23;;;;;;;19.73;10.13;;;8.10;99.90;;;;;;5032844;28;20478;-70
2022/01/18 07:57:49;;;;;;;26.33;11.17;;;8.10;99.90;;;;;;5032988;28;20446;-70
2022/01/18 08:00:17;;;;;;;20.23;10.00;;;8.10;99.90;;;;;;5032933;28;20465;-70
2022/01/18 08:02:45;;;;;;;22.70;10.57;;;8.10;99.90;;;;;;5034894;28;20811;-70
2022/01/18 08:05:13;;;;;;;27.97;11.30;;;8.10;99.90;;;;;;5036651;28;20462;-70
2022/01/18 08:07:40;;;;;;;29.20;11.80;;;8.20;99.90;;;;;;5036733;28;20426;-70
2022/01/18 08:10:10;;;;;;;20.43;10.67;;;8.10;99.90;;;;;;5036683;28;20489;-70
2022/01/18 08:12:37;;;;;;;26.80;11.63;;;8.20;99.90;;;;;;5036888;28;20451;-70
2022/01/18 08:15:13;;;;;;;29.60;12.23;;;8.20;99.90;;;;;;5036461;28;20469;-70
2022/01/18 08:17:41;;;;;;;21.33;11.73;;;8.20;99.90;;;;;;5036059;28;20906;-70
2022/01/18 08:20:12;;;;;;;26.80;12.20;;;8.20;99.90;;;;;;5036443;28;20496;-70
2022/01/18 08:22:38;;;;;;;29.80;12.10;;;8.30;99.90;;;;;;5036429;28;20434;-70
2022/01/18 08:25:08;;;;;;;22.17;12.50;;;8.20;99.90;;;;;;5036272;28;20462;-70
2022/01/18 08:27:34;;;;;;;27.93;12.30;;;8.30;99.90;;;;;;5036289;28;20469;-70
2022/01/18 08:30:01;;;;;;;26.47;11.70;;;8.30;99.90;;;;;;5036213;28;20450;-70
2022/01/18 08:32:28;;;;;;;39.13;13.83;;;8.30;99.90;;;;;;5036157;28;20847;-70
2022/01/18 08:34:55;;;;;;;37.07;13.40;;;8.40;99.90;;;;;;5036138;28;20828;-70
2022/01/18 08:37:21;;;;;;;28.40;13.23;;;8.40;99.90;;;;;;5036152;28;20450;-70
2022/01/18 08:39:48;;;;;;;32.03;13.27;;;8.40;99.90;;;;;;5036334;28;20455;-70
2022/01/18 08:42:16;;;;;;;29.43;15.40;;;8.50;99.90;;;;;;5036251;28;20446;-70
2022/01/18 08:44:43;;;;;;;26.87;13.43;;;8.50;99.90;;;;;;5035949;28;20470;-70
2022/01/18 08:47:10;;;;;;;34.30;13.80;;;8.60;99.90;;;;;;5035620;28;20442;-70
2022/01/18 08:49:37;;;;;;;27.60;12.80;;;8.60;99.90;;;;;;5035985;28;20447;-70
2022/01/18 08:52:04;;;;;;;34.37;13.77;;;8.60;99.90;;;;;;5035677;28;20466;-70
2022/01/18 08:54:32;;;;;;;34.00;13.33;;;8.60;99.90;;;;;;5035688;28;20551;-71
2022/01/18 08:56:58;;;;;;;25.63;13.53;;;8.60;99.90;;;;;;5035793;28;20443;-70
2022/01/18 08:59:28;;;;;;;34.53;13.53;;;8.60;99.90;;;;;;5035765;28;20448;-70
2022/01/18 09:01:57;;;;;;;24.17;12.40;;;8.60;99.90;;;;;;5035741;28;20472;-70
2022/01/18 09:04:24;;;;;;;26.03;14.00;;;8.70;99.90;;;;;;5035605;28;20516;-70
2022/01/18 09:06:52;;;;;;;25.60;12.47;;;8.70;99.90;;;;;;5035621;28;20442;-70
2022/01/18 09:09:20;;;;;;;29.07;13.60;;;8.70;99.90;;;;;;5035560;28;20450;-70
2022/01/18 09:11:47;;;;;;;26.50;12.77;;;8.80;99.90;;;;;;5035443;28;20588;-70
2022/01/18 09:14:15;;;;;;;28.57;12.67;;;8.80;99.90;;;;;;5034589;28;20477;-70
2022/01/18 09:16:44;;;;;;;30.83;14.17;;;8.80;99.90;;;;;;5035458;28;20817;-70
2022/01/18 09:19:11;;;;;;;30.80;14.23;;;8.80;99.90;;;;;;5035421;28;20442;-70
2022/01/18 09:21:59;;;;;;;32.57;13.93;;;8.90;99.90;;;;;;5035397;28;20427;-70
2022/01/18 09:24:30;;;;;;;25.53;11.93;;;8.90;99.90;;;;;;5035176;28;20479;-70
2022/01/18 09:27:10;;;;;;;33.53;12.90;;;9.00;99.90;;;;;;5035503;28;20437;-70
2022/01/18 09:30:28;;;;;;;23.00;12.07;;;9.00;99.90;;;;;;5035314;28;20441;-70
2022/01/18 09:32:58;;;;;;;22.03;11.87;;;9.00;99.90;;;;;;5035155;28;20477;-70
2022/01/18 09:35:26;;;;;;;28.37;12.70;;;9.00;99.90;;;;;;5035139;28;20549;-70
2022/01/18 09:37:52;;;;;;;26.50;13.63;;;9.00;99.90;;;;;;5035017;28;20445;-70
2022/01/18 09:40:20;;;;;;;20.93;10.67;;;9.00;99.90;;;;;;5035002;28;20446;-70
2022/01/18 09:42:48;;;;;;;25.83;12.27;;;9.00;99.90;;;;;;5034970;28;20451;-70
2022/01/18 09:45:17;;;;;;;18.70;10.97;;;9.10;99.90;;;;;;5034864;28;20501;-70
2022/01/18 09:47:50;;;;;;;23.73;10.80;;;9.10;99.90;;;;;;5034796;28;20447;-70
2022/01/18 09:50:21;;;;;;;23.27;13.80;;;9.10;99.90;;;;;;5034496;28;20434;-70
2022/01/18 09:52:52;;;;;;;28.30;11.97;;;9.20;99.90;;;;;;5035077;28;20496;-70
2022/01/18 09:55:19;;;;;;;22.10;11.40;;;9.30;99.90;;;;;;5034394;28;20556;-70
2022/01/18 09:57:46;;;;;;;22.00;10.10;;;9.40;99.90;;;;;;5034450;28;20978;-70
2022/01/18 10:00:14;;;;;;;28.50;10.87;;;9.40;99.90;;;;;;5034652;28;20442;-71
2022/01/18 10:02:40;;;;;;;21.17;10.43;;;9.60;99.90;;;;;;5034851;28;20442;-70
2022/01/18 10:05:21;;;;;;;20.50;9.90;;;9.70;99.90;;;;;;5034214;28;20981;-70
2022/01/18 10:08:00;;;;;;;23.33;11.40;;;9.80;99.90;;;;;;5034758;28;20434;-70
2022/01/18 10:10:39;;;;;;;17.63;10.10;;;9.90;99.90;;;;;;5034514;28;20435;-70
2022/01/18 10:13:07;;;;;;;18.67;8.17;;;10.00;99.90;;;;;;5034360;28;20492;-70
2022/01/18 10:15:36;;;;;;;17.40;10.50;;;10.10;99.90;;;;;;5034309;28;20462;-70
2022/01/18 10:18:10;;;;;;;17.53;9.57;;;10.20;99.90;;;;;;5034296;28;20454;-70
2022/01/18 10:20:53;;;;;;;17.10;9.63;;;10.30;99.90;;;;;;5034196;28;20442;-70
2022/01/18 10:23:23;;;;;;;20.53;11.30;;;10.40;99.90;;;;;;5034243;28;20430;-71
2022/01/18 10:25:51;;;;;;;23.43;10.23;;;10.30;99.90;;;;;;5034047;28;20463;-70
2022/01/18 10:28:32;;;;;;;25.43;10.33;;;10.30;99.90;;;;;;5033793;28;20458;-70
2022/01/18 10:31:05;;;;;;;19.53;10.60;;;10.30;99.90;;;;;;5033912;28;20482;-70
2022/01/18 10:33:37;;;;;;;20.67;10.70;;;10.20;99.90;;;;;;5033965;28;20788;-70
2022/01/18 10:36:13;;;;;;;18.57;10.60;;;10.20;99.90;;;;;;5034006;28;20431;-70
2022/01/18 10:38:41;;;;;;;19.27;9.80;;;10.30;99.90;;;;;;5034177;28;20437;-70
2022/01/18 10:41:33;;;;;;;19.83;9.57;;;10.40;99.90;;;;;;5033534;28;20942;-70
2022/01/18 10:44:04;;;;;;;16.63;10.37;;;10.40;99.90;;;;;;5014506;28;20845;-70
2022/01/18 10:46:35;;;;;;;23.60;9.90;;;10.30;99.90;;;;;;5033434;28;20942;-70
2022/01/18 10:49:02;;;;;;;28.20;10.80;;;10.40;99.90;;;;;;5033468;28;20458;-70
2022/01/18 10:51:32;;;;;;;20.20;10.37;;;10.40;99.90;;;;;;5033644;28;20486;-70
2022/01/18 10:54:00;;;;;;;20.27;10.87;;;10.40;99.90;;;;;;5033688;28;20486;-70
2022/01/18 10:56:37;;;;;;;20.33;10.10;;;10.60;99.90;;;;;;5033677;28;20512;-70
2022/01/18 10:59:03;;;;;;;18.03;9.73;;;10.60;99.90;;;;;;5034381;28;20492;-70
2022/01/18 11:01:31;;;;;;;27.50;10.23;;;10.60;99.90;;;;;;5033507;28;20449;-71
2022/01/18 11:04:10;;;;;;;15.13;8.07;;;10.70;99.90;;;;;;5033432;28;20881;-70
2022/01/18 11:06:42;;;;;;;12.60;6.87;;;10.80;99.90;;;;;;5033520;28;20448;-71
2022/01/18 11:09:14;;;;;;;17.80;9.30;;;10.90;99.90;;;;;;5033481;28;20434;-71
2022/01/18 11:11:45;;;;;;;18.50;10.37;;;11.10;99.90;;;;;;5033657;28;20557;-71
2022/01/18 11:14:14;;;;;;;17.83;9.43;;;11.30;99.90;;;;;;5033303;28;20492;-71
2022/01/18 11:16:43;;;;;;;16.90;9.40;;;11.40;99.90;;;;;;5033381;28;20534;-71
2022/01/18 11:19:27;;;;;;;17.00;9.13;;;11.60;99.90;;;;;;5033396;28;20435;-71
2022/01/18 11:21:57;;;;;;;19.70;9.20;;;11.70;99.90;;;;;;5033368;28;20430;-71
2022/01/18 11:24:24;;;;;;;17.97;10.30;;;11.80;99.90;;;;;;5033242;28;20549;-71
2022/01/18 11:26:51;;;;;;;20.43;8.93;;;11.90;99.90;;;;;;5033291;28;20454;-71
2022/01/18 11:29:21;;;;;;;25.17;10.07;;;11.80;99.90;;;;;;5033218;28;20820;-71
2022/01/18 11:31:49;;;;;;;21.20;8.70;;;11.80;99.90;;;;;;5033225;28;20474;-71
2022/01/18 11:34:26;;;;;;;23.23;10.57;;;11.80;99.90;;;;;;5032810;28;20982;-70
2022/01/18 11:36:58;;;;;;;14.57;8.27;;;11.90;99.90;;;;;;5033867;28;20449;-70
2022/01/18 11:39:30;;;;;;;21.97;10.20;;;12.00;99.90;;;;;;5037516;28;20449;-70
2022/01/18 11:42:06;;;;;;;20.67;9.50;;;12.20;99.90;;;;;;5036875;28;20926;-70
2022/01/18 11:44:33;;;;;;;18.50;8.90;;;12.30;99.90;;;;;;5037112;28;20473;-70
2022/01/18 11:47:00;;;;;;;21.30;7.70;;;12.30;99.90;;;;;;5036687;28;20895;-70
2022/01/18 11:49:29;;;;;;;17.00;8.50;;;12.30;99.90;;;;;;5036893;28;20457;-70
2022/01/18 11:52:02;;;;;;;16.90;7.60;;;12.40;99.90;;;;;;5036745;28;20493;-70
2022/01/18 11:54:38;;;;;;;14.00;8.00;;;12.40;99.80;;;;;;5036795;28;20485;-70
2022/01/18 11:57:36;;;;;;;13.87;7.43;;;12.40;99.60;;;;;;5037022;28;20487;-70
2022/01/18 12:00:24;;;;;;;12.10;7.40;;;12.50;99.30;;;;;;5037090;28;20964;-70
2022/01/18 12:02:55;;;;;;;19.20;8.63;;;12.50;99.10;;;;;;5036814;28;20427;-70
2022/01/18 12:05:25;;;;;;;16.40;8.27;;;12.60;98.80;;;;;;5036751;28;20466;-70
2022/01/18 12:07:58;;;;;;;17.20;8.23;;;12.70;97.80;;;;;;5036738;28;20489;-70
2022/01/18 12:10:45;;;;;;;13.90;7.90;;;12.80;97.70;;;;;;5036956;28;20438;-70
2022/01/18 12:13:24;;;;;;;17.03;8.10;;;12.90;97.10;;;;;;5037200;28;20486;-71
2022/01/18 12:15:52;;;;;;;12.10;6.43;;;12.90;96.90;;;;;;5036665;28;20461;-70
2022/01/18 12:18:20;;;;;;;14.53;7.53;;;12.90;97.00;;;;;;5036531;28;20448;-70
2022/01/18 12:20:49;;;;;;;16.13;8.27;;;12.80;96.80;;;;;;5036847;28;20521;-70
2022/01/18 12:23:17;;;;;;;13.83;7.10;;;12.80;96.70;;;;;;5036399;28;20438;-70
2022/01/18 12:25:57;;;;;;;12.43;6.27;;;12.80;96.80;;;;;;5036292;28;20482;-71
2022/01/18 12:28:54;;;;;;;15.00;7.57;;;12.70;96.80;;;;;;5036655;28;20453;-71
2022/01/18 12:34:38;;;;;;;10.70;6.70;;;13.10;97.40;;;;;;5003179;28;20497;-71
2022/01/18 12:37:48;;;;;;;13.37;5.90;;;13.60;97.00;;;;;;5037239;28;20454;-70
2022/01/18 12:40:33;;;;;;;15.00;7.20;;;14.10;94.80;;;;;;5036216;28;20517;-71
2022/01/18 12:45:55;;;;;;;14.03;6.70;;;14.20;92.70;;;;;;5035813;28;20438;-70
2022/01/18 12:48:23;;;;;;;11.87;6.87;;;14.20;92.50;;;;;;5034996;28;20445;-70
2022/01/18 12:50:53;;;;;;;12.80;5.93;;;14.10;92.40;;;;;;5035804;28;20453;-70
2022/01/18 12:53:23;;;;;;;11.57;5.37;;;14.00;92.40;;;;;;5035969;28;20474;-71
2022/01/18 12:55:54;;;;;;;12.10;5.40;;;13.80;92.30;;;;;;5035831;28;20473;-70
2022/01/18 12:58:23;;;;;;;12.00;5.70;;;13.70;92.40;;;;;;5035878;28;20521;-70
2022/01/18 13:00:53;;;;;;;11.93;5.17;;;13.60;92.50;;;;;;5036121;28;20446;-70
2022/01/18 13:03:23;;;;;;;14.17;5.80;;;13.40;92.60;;;;;;5035700;28;20435;-70
2022/01/18 13:05:53;;;;;;;13.10;6.77;;;13.30;92.80;;;;;;5035671;28;20474;-70
2022/01/18 13:08:22;;;;;;;8.83;4.07;;;13.20;93.00;;;;;;5035289;28;20789;-70
2022/01/18 13:10:51;;;;;;;10.07;5.77;;;13.10;93.20;;;;;;5035549;28;20446;-70
2022/01/18 13:13:22;;;;;;;15.60;5.80;;;13.00;93.50;;;;;;5035601;28;20478;-70
2022/01/18 13:27:15;;;;;;;12.10;5.77;;;14.00;91.90;;;;;;4994155;28;20515;-70
2022/01/18 13:29:43;;;;;;;9.07;5.90;;;13.90;91.30;;;;;;5026369;28;20493;-71
2022/01/18 13:32:16;;;;;;;9.37;5.97;;;13.80;91.30;;;;;;5035269;28;20552;-70
2022/01/18 13:34:46;;;;;;;14.80;5.60;;;13.60;91.40;;;;;;5035132;28;20471;-70
2022/01/18 13:37:15;;;;;;;15.70;7.03;;;13.40;91.70;;;;;;5034872;28;20815;-70
2022/01/18 13:39:46;;;;;;;10.10;5.40;;;13.30;92.00;;;;;;5035136;28;20439;-71
2022/01/18 13:42:16;;;;;;;11.17;5.10;;;13.10;92.30;;;;;;5035154;28;20806;-71
2022/01/18 13:45:07;;;;;;;12.20;5.87;;;13.00;92.70;;;;;;5034894;28;20477;-70
2022/01/18 13:47:39;;;;;;;13.43;6.87;;;12.90;93.10;;;;;;5034563;28;20434;-71
2022/01/18 13:50:08;;;;;;;14.07;7.10;;;12.80;93.30;;;;;;5034630;28;20431;-70
2022/01/18 13:52:35;;;;;;;12.10;7.50;;;12.70;93.60;;;;;;5034838;28;20478;-71
2022/01/18 13:55:02;;;;;;;17.30;9.10;;;12.60;93.80;;;;;;5034315;28;21006;-70
2022/01/18 13:57:28;;;;;;;16.97;7.50;;;12.60;94.10;;;;;;5034755;28;20450;-70
2022/01/18 13:59:55;;;;;;;13.70;8.13;;;12.60;94.10;;;;;;5034134;28;20458;-70
2022/01/18 14:02:24;;;;;;;14.53;7.23;;;12.50;94.20;;;;;;5034749;28;20450;-70
2022/01/18 14:07:44;;;;;;;22.07;6.60;;;12.50;94.30;;;;;;5091767;28;20510;-71